Time;durP1;ratioP1;P1;durP2;ratioP2;P2;SDS_P1;SDS_P2;PMS_P1;PMS_P2;Temp;Humidity;BMP_temperature;BMP_pressure;BME280_temperature;BME280_humidity;BME280_pressure;Samples;Min_cycle;Max_cycle;Signal;HPM_P1;HPM_P2
2023/07/22 00:01:58;;;;;;;86.63;82.00;;;;;;;23.07;37.81;101280.03;5027809;28;20097;-68
2023/07/22 00:04:25;;;;;;;85.32;81.00;;;;;;;23.07;38.06;101284.75;5022335;28;20044;-75
2023/07/22 00:06:50;;;;;;;82.88;78.13;;;;;;;23.06;37.91;101285.88;5030625;28;20034;-69
2023/07/22 00:09:16;;;;;;;80.10;75.97;;;;;;;23.03;38.11;101292.84;5023830;28;20120;-68
2023/07/22 00:11:41;;;;;;;82.20;77.20;;;;;;;23.02;37.76;101290.38;5012816;28;20042;-70
2023/07/22 00:14:06;;;;;;;81.45;77.18;;;;;;;23.01;37.88;101289.59;5032654;28;20472;-70
2023/07/22 00:16:33;;;;;;;82.75;78.03;;;;;;;22.99;38.14;101283.56;5031699;28;20029;-69
2023/07/22 00:18:58;;;;;;;84.00;79.30;;;;;;;22.98;38.34;101281.94;5012198;28;20502;-69
2023/07/22 00:21:23;;;;;;;81.70;77.40;;;;;;;22.97;38.28;101283.06;5016861;28;20049;-69
2023/07/22 00:23:49;;;;;;;78.82;74.95;;;;;;;22.96;38.22;101286.13;5022382;28;20125;-69
2023/07/22 00:26:14;;;;;;;83.97;79.72;;;;;;;22.94;38.18;101283.66;5016145;28;20548;-69
2023/07/22 00:28:39;;;;;;;81.63;77.25;;;;;;;22.93;37.96;101281.19;5021502;28;20037;-69
2023/07/22 00:31:05;;;;;;;78.28;74.07;;;;;;;22.92;38.56;101272.13;5020976;28;20539;-69
2023/07/22 00:33:30;;;;;;;81.15;76.90;;;;;;;22.90;38.23;101277.13;5026306;28;20030;-69
2023/07/22 00:35:56;;;;;;;83.80;79.28;;;;;;;22.89;38.52;101275.53;5021956;28;20559;-69
2023/07/22 00:38:21;;;;;;;83.88;79.55;;;;;;;22.87;38.17;101281.34;5030450;28;20041;-68
2023/07/22 00:40:47;;;;;;;82.10;77.40;;;;;;;22.85;38.15;101283.56;5023666;28;20054;-69
2023/07/22 00:43:12;;;;;;;81.20;77.00;;;;;;;22.85;38.33;101285.53;5027106;28;20381;-68
2023/07/22 00:45:38;;;;;;;82.78;78.40;;;;;;;22.83;38.12;101271.25;5019177;28;20425;-72
2023/07/22 00:48:05;;;;;;;83.13;78.72;;;;;;;22.82;38.69;101275.94;5027829;28;20040;-70
2023/07/22 00:50:31;;;;;;;81.93;77.75;;;;;;;22.79;38.20;101273.81;5027454;28;20127;-69
2023/07/22 00:52:57;;;;;;;83.20;78.85;;;;;;;22.79;38.29;101273.00;5019201;28;20034;-70
2023/07/22 00:55:23;;;;;;;82.45;78.15;;;;;;;22.77;38.47;101267.81;5025698;28;20402;-69
2023/07/22 00:57:48;;;;;;;83.18;78.68;;;;;;;22.75;38.81;101263.75;5024195;28;20646;-69
2023/07/22 01:00:16;;;;;;;83.47;79.00;;;;;;;22.75;38.77;101270.06;5030724;28;20236;-70
2023/07/22 01:02:42;;;;;;;85.07;80.68;;;;;;;22.74;38.80;101259.38;5030131;28;20029;-70
2023/07/22 01:05:10;;;;;;;80.75;76.40;;;;;;;22.72;38.33;101265.19;5026362;28;20046;-70
2023/07/22 01:07:36;;;;;;;81.45;76.78;;;;;;;22.72;38.96;101269.88;5033393;28;20457;-68
2023/07/22 01:10:03;;;;;;;80.00;75.70;;;;;;;22.70;38.87;101267.44;5026344;28;20120;-69
2023/07/22 01:12:28;;;;;;;82.63;77.85;;;;;;;22.68;38.88;101267.75;5025247;28;20046;-69
2023/07/22 01:14:54;;;;;;;79.03;74.65;;;;;;;22.67;39.17;101265.31;5020759;28;20034;-69
2023/07/22 01:17:19;;;;;;;80.55;76.38;;;;;;;22.66;39.08;101264.50;5021351;28;20569;-69
2023/07/22 01:19:47;;;;;;;81.47;76.70;;;;;;;22.65;38.84;101262.03;5027765;28;20064;-68
2023/07/22 01:22:13;;;;;;;83.15;78.50;;;;;;;22.64;39.10;101268.69;5012795;28;20064;-68
2023/07/22 01:24:39;;;;;;;82.35;77.75;;;;;;;22.63;38.67;101267.88;5024425;28;20145;-68
2023/07/22 01:27:10;;;;;;;81.35;77.20;;;;;;;22.62;39.06;101259.91;5021129;28;20541;-70
2023/07/22 01:29:36;;;;;;;81.13;76.47;;;;;;;22.59;39.04;101258.59;5019213;28;20040;-69
2023/07/22 01:32:02;;;;;;;82.22;77.90;;;;;;;22.59;38.65;101266.06;5023622;28;20392;-70
2023/07/22 01:34:27;;;;;;;80.65;76.05;;;;;;;22.57;39.23;101258.09;5030080;28;20037;-68
2023/07/22 01:36:53;;;;;;;81.32;76.80;;;;;;;22.57;39.32;101262.78;5020226;28;20029;-68
2023/07/22 01:39:19;;;;;;;81.72;77.13;;;;;;;22.55;39.01;101251.25;5023629;28;20037;-70
2023/07/22 01:41:45;;;;;;;84.85;80.22;;;;;;;22.54;38.80;101255.16;5020189;28;20033;-71
2023/07/22 01:44:11;;;;;;;80.50;75.90;;;;;;;22.53;39.28;101256.25;5023028;28;20476;-69
2023/07/22 01:46:37;;;;;;;82.45;77.60;;;;;;;22.52;39.02;101249.94;5039776;28;20022;-69
2023/07/22 01:49:08;;;;;;;82.53;77.95;;;;;;;22.50;39.01;101249.44;5024161;28;20449;-69
2023/07/22 01:51:34;;;;;;;79.90;75.63;;;;;;;22.47;39.17;101245.38;5021698;28;20034;-69
2023/07/22 01:53:59;;;;;;;80.93;76.57;;;;;;;22.46;39.38;101242.94;5023441;28;20508;-70
2023/07/22 01:56:25;;;;;;;77.57;73.10;;;;;;;22.46;39.00;101245.69;5011798;28;20041;-70
2023/07/22 01:58:50;;;;;;;82.00;77.03;;;;;;;22.44;38.93;101237.75;5019026;28;20068;-69
2023/07/22 02:01:16;;;;;;;81.93;77.60;;;;;;;22.43;39.33;101244.38;5023360;28;20041;-69
2023/07/22 02:03:45;;;;;;;83.68;79.13;;;;;;;22.42;39.56;101241.94;5026132;28;20124;-70
2023/07/22 02:06:10;;;;;;;82.30;77.70;;;;;;;22.40;39.05;101238.66;5030547;28;20034;-70
2023/07/22 02:08:36;;;;;;;82.22;77.68;;;;;;;22.39;39.21;101239.81;5029007;28;20041;-74
2023/07/22 02:11:06;;;;;;;81.28;76.97;;;;;;;22.38;39.12;101249.19;5023466;28;20033;-69
2023/07/22 02:13:33;;;;;;;82.07;77.07;;;;;;;22.36;39.31;101244.00;5020561;28;20037;-69
2023/07/22 02:15:59;;;;;;;80.10;75.90;;;;;;;22.35;39.19;101244.28;5021842;28;20120;-70
2023/07/22 02:18:25;;;;;;;79.40;74.80;;;;;;;22.33;39.24;101239.13;5021620;28;20029;-69
2023/07/22 02:20:51;;;;;;;79.72;75.53;;;;;;;22.31;39.67;101235.84;5019073;28;20030;-69
2023/07/22 02:23:16;;;;;;;78.63;74.50;;;;;;;22.32;39.18;101236.66;5011628;28;20450;-70
2023/07/22 02:25:41;;;;;;;83.95;78.88;;;;;;;22.31;39.21;101235.03;5027692;28;20036;-69
2023/07/22 02:28:07;;;;;;;81.68;77.10;;;;;;;22.29;39.20;101227.09;5034453;28;20041;-70
2023/07/22 02:30:36;;;;;;;80.68;76.30;;;;;;;22.28;39.22;101224.66;5030753;28;20033;-68
2023/07/22 02:33:02;;;;;;;78.43;74.03;;;;;;;22.26;39.29;101224.97;5021708;28;20038;-70
2023/07/22 02:35:28;;;;;;;82.75;78.30;;;;;;;22.25;39.60;101220.56;5024598;28;20125;-68
2023/07/22 02:37:54;;;;;;;81.10;76.55;;;;;;;22.23;39.21;101222.84;5034944;28;20148;-69
2023/07/22 02:40:19;;;;;;;84.47;79.85;;;;;;;22.20;39.68;101224.28;5015790;28;20104;-70
2023/07/22 02:42:45;;;;;;;78.97;74.72;;;;;;;22.21;39.37;101222.31;5027783;28;20478;-70
2023/07/22 02:45:10;;;;;;;80.10;75.80;;;;;;;22.19;39.72;101227.28;5042134;28;20079;-68
2023/07/22 02:47:36;;;;;;;82.03;77.63;;;;;;;22.18;39.54;101231.19;5032425;28;20546;-70
2023/07/22 02:50:02;;;;;;;79.35;75.05;;;;;;;22.16;39.35;101227.91;5023286;28;20469;-69
2023/07/22 02:52:28;;;;;;;78.93;74.55;;;;;;;22.14;39.64;101225.47;5033119;28;20029;-68
2023/07/22 02:55:14;;;;;;;79.85;75.10;;;;;;;22.13;39.69;101229.34;5036119;28;20103;-69
2023/07/22 02:57:40;;;;;;;75.60;71.68;;;;;;;22.11;39.33;101225.28;5020944;28;20049;-69
2023/07/22 03:00:07;;;;;;;76.80;72.72;;;;;;;22.10;39.76;101234.63;5024020;28;20042;-71
2023/07/22 03:02:36;;;;;;;80.82;76.13;;;;;;;22.09;39.48;101233.03;5014928;28;20032;-70
2023/07/22 03:05:04;;;;;;;;;;;;;;;22.07;39.28;101236.06;5032694;28;20030;-69
2023/07/22 03:07:30;;;;;;;76.32;72.20;;;;;;;22.05;39.34;101232.84;5037510;28;20384;-69
2023/07/22 03:09:55;;;;;;;79.00;74.60;;;;;;;22.03;39.44;101233.13;5032588;28;20029;-70
2023/07/22 03:12:20;;;;;;;79.32;74.85;;;;;;;22.01;39.59;101235.38;5034162;28;20040;-70
2023/07/22 03:14:46;;;;;;;80.38;75.85;;;;;;;21.99;39.34;101234.03;5032170;28;20036;-69
2023/07/22 03:17:16;;;;;;;77.63;73.22;;;;;;;21.97;39.74;101234.38;5034607;28;20544;-67
2023/07/22 03:19:41;;;;;;;78.13;73.72;;;;;;;21.97;39.47;101239.03;5031844;28;20041;-69
2023/07/22 03:22:07;;;;;;;77.80;73.70;;;;;;;21.95;39.56;101233.06;5025711;28;20025;-69
2023/07/22 03:24:32;;;;;;;77.57;73.35;;;;;;;21.93;39.69;101238.03;5023272;28;20397;-69
2023/07/22 03:26:57;;;;;;;78.28;73.93;;;;;;;21.93;39.73;101241.59;5027478;28;20037;-70
2023/07/22 03:29:24;;;;;;;79.20;74.70;;;;;;;21.91;39.96;101234.78;5028342;28;20068;-68
2023/07/22 03:31:49;;;;;;;78.88;74.40;;;;;;;21.90;40.05;101235.88;5019779;28;20071;-68
2023/07/22 03:34:15;;;;;;;77.20;72.80;;;;;;;21.88;40.06;101241.72;5015963;28;20062;-70
2023/07/22 03:36:40;;;;;;;75.15;71.10;;;;;;;21.87;39.78;101242.81;5016048;28;20421;-70
2023/07/22 03:39:06;;;;;;;78.03;73.75;;;;;;;21.85;39.56;101247.00;5031695;28;20033;-74
2023/07/22 03:41:31;;;;;;;78.60;74.05;;;;;;;21.84;39.47;101243.44;5033239;28;20476;-69
2023/07/22 03:43:56;;;;;;;78.40;74.20;;;;;;;21.81;39.74;101235.81;5035426;28;20048;-71
2023/07/22 03:46:22;;;;;;;76.82;72.78;;;;;;;21.79;40.07;101238.84;5013953;28;20030;-71
2023/07/22 03:48:47;;;;;;;77.90;73.68;;;;;;;21.79;39.60;101232.53;5028355;28;20040;-73
2023/07/22 03:51:12;;;;;;;75.78;71.43;;;;;;;21.76;40.08;101228.47;5032454;28;20043;-70
2023/07/22 03:53:38;;;;;;;75.15;71.22;;;;;;;21.76;39.44;101231.22;5033909;28;20178;-70
2023/07/22 03:56:04;;;;;;;75.38;71.32;;;;;;;21.75;39.70;101234.28;5032926;28;20389;-69
2023/07/22 03:58:29;;;;;;;78.93;74.82;;;;;;;21.73;39.47;101236.53;5039135;28;20056;-69
2023/07/22 04:00:54;;;;;;;75.22;70.78;;;;;;;21.71;39.69;101230.50;5013982;28;20045;-68
2023/07/22 04:03:20;;;;;;;75.68;71.55;;;;;;;21.69;39.68;101233.56;5031752;28;20033;-69
2023/07/22 04:05:53;;;;;;;73.90;69.97;;;;;;;21.68;39.94;101231.94;5023658;28;20038;-69
2023/07/22 04:08:19;;;;;;;75.05;71.20;;;;;;;21.66;39.64;101234.16;5030750;28;20068;-70
2023/07/22 04:10:54;;;;;;;74.18;69.75;;;;;;;21.65;39.77;101237.25;5015257;28;20129;-70
2023/07/22 04:13:20;;;;;;;78.13;73.75;;;;;;;21.64;40.00;101238.34;5012541;28;20161;-67
2023/07/22 04:15:47;;;;;;;76.97;72.20;;;;;;;21.61;39.55;101232.34;5025627;28;20474;-70
2023/07/22 04:18:12;;;;;;;74.30;69.95;;;;;;;21.60;39.85;101235.41;5019873;28;20389;-70
2023/07/22 04:20:37;;;;;;;72.30;68.20;;;;;;;21.58;39.98;101237.63;5031738;28;20040;-70
2023/07/22 04:23:03;;;;;;;77.60;73.32;;;;;;;21.56;39.65;101242.63;5038108;28;20049;-68
2023/07/22 04:25:28;;;;;;;73.18;68.97;;;;;;;21.54;40.21;101250.34;5031635;28;20481;-70
2023/07/22 04:27:54;;;;;;;74.10;70.00;;;;;;;21.53;40.03;101251.47;5033213;28;20085;-69
2023/07/22 04:30:20;;;;;;;74.93;70.82;;;;;;;21.51;39.82;101242.72;5014584;28;20052;-70
2023/07/22 04:32:49;;;;;;;73.43;69.60;;;;;;;21.50;40.12;101236.41;5023023;28;20118;-69
2023/07/22 04:35:17;;;;;;;73.30;69.15;;;;;;;21.47;39.80;101236.19;5012533;28;20046;-70
2023/07/22 04:37:43;;;;;;;73.67;69.67;;;;;;;21.46;40.18;101246.38;5021777;28;20548;-69
2023/07/22 04:40:13;;;;;;;76.30;72.30;;;;;;;21.45;39.83;101249.44;5013013;28;20100;-68
2023/07/22 04:42:39;;;;;;;72.45;68.55;;;;;;;21.43;40.12;101251.69;5029828;28;20503;-70
2023/07/22 04:45:06;;;;;;;73.70;69.72;;;;;;;21.42;40.13;101250.88;5023919;28;20030;-69
2023/07/22 04:47:31;;;;;;;72.78;68.88;;;;;;;21.41;40.22;101243.72;5014588;28;20076;-68
2023/07/22 04:49:57;;;;;;;74.30;70.05;;;;;;;21.39;40.31;101254.19;5030344;28;20037;-69
2023/07/22 04:52:22;;;;;;;72.50;68.75;;;;;;;21.36;40.08;101250.09;5022373;28;20029;-68
2023/07/22 04:54:47;;;;;;;74.10;69.95;;;;;;;21.36;39.61;101252.03;5013131;28;20524;-69
2023/07/22 04:57:13;;;;;;;74.13;70.20;;;;;;;21.34;40.03;101257.84;5023420;28;20153;-69
2023/07/22 04:59:38;;;;;;;75.03;70.82;;;;;;;21.33;40.21;101261.69;5019260;28;20038;-71
2023/07/22 05:02:04;;;;;;;73.15;69.25;;;;;;;21.31;40.26;101261.19;5017810;28;20032;-70
2023/07/22 05:04:29;;;;;;;71.40;67.57;;;;;;;21.30;40.46;101258.75;5033096;28;20110;-70
2023/07/22 05:06:55;;;;;;;74.43;70.38;;;;;;;21.30;40.26;101264.25;5012290;28;20041;-69
2023/07/22 05:09:20;;;;;;;70.05;66.20;;;;;;;21.29;40.19;101257.09;5028830;28;20041;-70
2023/07/22 05:11:46;;;;;;;70.53;66.88;;;;;;;21.27;40.07;101253.84;5016845;28;20172;-69
2023/07/22 05:14:11;;;;;;;74.28;70.03;;;;;;;21.24;40.13;101255.25;5028731;28;20082;-70
2023/07/22 05:16:37;;;;;;;72.40;68.60;;;;;;;21.24;40.40;101254.44;5011353;28;20038;-71
2023/07/22 05:19:02;;;;;;;75.68;71.65;;;;;;;21.24;40.08;101255.25;5019939;28;20033;-70
2023/07/22 05:21:27;;;;;;;75.90;71.88;;;;;;;21.22;40.41;101254.78;5027810;28;20402;-70
2023/07/22 05:23:53;;;;;;;75.95;71.95;;;;;;;21.21;40.07;101250.38;5014782;28;20032;-70
2023/07/22 05:26:18;;;;;;;73.93;69.75;;;;;;;21.20;40.20;101250.69;5011655;28;20504;-68
2023/07/22 05:28:43;;;;;;;72.97;69.07;;;;;;;21.20;40.52;101254.25;5011368;28;20041;-70
2023/07/22 05:31:09;;;;;;;72.88;69.10;;;;;;;21.17;40.20;101252.91;5015502;28;20042;-71
2023/07/22 05:33:35;;;;;;;74.10;70.00;;;;;;;21.17;40.54;101257.59;5012672;28;20029;-70
2023/07/22 05:36:01;;;;;;;72.03;68.10;;;;;;;21.15;40.44;101260.66;5028961;28;20061;-70
2023/07/22 05:38:26;;;;;;;71.53;67.85;;;;;;;21.15;40.60;101252.41;5014181;28;20061;-69
2023/07/22 05:40:53;;;;;;;72.70;68.88;;;;;;;21.14;40.74;101249.94;5029527;28;20477;-69
2023/07/22 05:43:18;;;;;;;69.78;65.75;;;;;;;21.14;40.66;101252.69;5043677;28;20037;-70
2023/07/22 05:45:44;;;;;;;71.40;66.88;;;;;;;21.14;40.23;101252.69;5055360;28;20053;-70
2023/07/22 05:48:09;;;;;;;72.63;68.47;;;;;;;21.13;40.75;101253.81;5023086;28;20038;-69
2023/07/22 05:50:34;;;;;;;73.15;69.15;;;;;;;21.12;40.88;101247.53;5029812;28;20131;-69
2023/07/22 05:53:00;;;;;;;73.07;69.32;;;;;;;21.12;40.81;101254.94;5021394;28;20033;-75
2023/07/22 05:55:26;;;;;;;72.53;68.60;;;;;;;21.11;40.68;101251.38;5019996;28;20078;-70
2023/07/22 05:57:52;;;;;;;69.95;66.35;;;;;;;21.11;40.96;101254.13;5042805;28;20053;-69
2023/07/22 06:00:17;;;;;;;70.93;67.25;;;;;;;21.11;40.81;101258.78;5033376;28;20073;-68
2023/07/22 06:02:43;;;;;;;72.20;68.20;;;;;;;21.10;41.22;101252.50;5011676;28;20064;-68
2023/07/22 06:05:08;;;;;;;72.28;68.35;;;;;;;21.10;40.99;101254.44;5011108;28;20038;-68
2023/07/22 06:07:33;;;;;;;70.38;66.55;;;;;;;21.10;40.77;101249.75;5043922;28;20025;-69
2023/07/22 06:09:59;;;;;;;72.32;68.40;;;;;;;21.09;41.29;101248.13;5013981;28;20521;-70
2023/07/22 06:12:24;;;;;;;69.25;65.63;;;;;;;21.09;41.06;101248.13;5033217;28;20053;-70
2023/07/22 06:14:50;;;;;;;67.80;64.32;;;;;;;21.10;40.77;101243.44;5033513;28;20029;-72
2023/07/22 06:17:15;;;;;;;74.05;69.95;;;;;;;21.09;41.12;101245.38;5008281;28;20406;-71
2023/07/22 06:19:41;;;;;;;74.10;69.80;;;;;;;21.09;41.28;101248.13;5051063;28;20495;-69
2023/07/22 06:22:06;;;;;;;71.90;67.72;;;;;;;21.09;40.96;101237.16;5029856;28;20498;-69
2023/07/22 06:24:31;;;;;;;72.65;68.22;;;;;;;21.11;41.20;101236.81;5017912;28;20108;-69
2023/07/22 06:26:57;;;;;;;71.57;67.45;;;;;;;21.10;41.32;101227.78;5033985;28;20037;-69
2023/07/22 06:29:22;;;;;;;73.75;69.53;;;;;;;21.10;41.37;101229.72;5024258;28;20501;-69
2023/07/22 06:31:47;;;;;;;72.95;68.93;;;;;;;21.10;41.24;101227.78;5028433;28;20061;-69
2023/07/22 06:34:13;;;;;;;74.43;70.18;;;;;;;21.11;41.42;101223.91;5028291;28;20470;-69
2023/07/22 06:36:38;;;;;;;70.95;67.35;;;;;;;21.11;41.08;101221.16;5015752;28;20038;-69
2023/07/22 06:39:04;;;;;;;71.28;67.07;;;;;;;21.12;41.64;101227.47;5015507;28;20040;-71
2023/07/22 06:41:29;;;;;;;71.07;65.95;;;;;;;21.12;41.24;101228.28;5018455;28;20045;-68
2023/07/22 06:43:55;;;;;;;73.95;69.55;;;;;;;21.13;41.17;101227.16;5023307;28;20049;-70
2023/07/22 06:46:21;;;;;;;72.57;68.38;;;;;;;21.14;41.72;101227.97;5031261;28;20063;-69
2023/07/22 06:48:47;;;;;;;72.60;67.55;;;;;;;21.15;41.82;101233.19;5032936;28;20088;-69
2023/07/22 06:51:12;;;;;;;71.63;67.78;;;;;;;21.16;41.75;101225.75;5039334;28;20381;-68
2023/07/22 06:53:38;;;;;;;71.93;67.95;;;;;;;21.18;41.55;101227.06;5037355;28;20458;-68
2023/07/22 06:56:03;;;;;;;72.35;68.47;;;;;;;21.20;41.72;101221.28;5033970;28;20054;-69
2023/07/22 06:58:30;;;;;;;71.57;67.22;;;;;;;21.21;41.71;101225.66;5034790;28;20037;-70
2023/07/22 07:00:55;;;;;;;69.63;65.85;;;;;;;21.23;41.60;101226.16;5023376;28;20063;-70
2023/07/22 07:03:21;;;;;;;71.20;67.53;;;;;;;21.23;41.55;101231.66;5027884;28;20029;-71
2023/07/22 07:05:57;;;;;;;71.57;66.88;;;;;;;21.23;41.72;101226.16;5014462;28;20038;-70
2023/07/22 07:08:23;;;;;;;68.90;65.22;;;;;;;21.26;41.84;101242.03;5026011;28;20420;-69
2023/07/22 07:10:49;;;;;;;71.45;67.50;;;;;;;21.28;41.77;101230.75;5041244;28;20087;-69
2023/07/22 07:13:14;;;;;;;73.25;69.13;;;;;;;21.28;42.34;101231.56;5042157;28;20057;-69
2023/07/22 07:15:40;;;;;;;71.93;68.32;;;;;;;21.30;42.00;101226.59;5014459;28;20088;-69
2023/07/22 07:18:06;;;;;;;73.65;69.47;;;;;;;21.32;42.46;101234.53;5019592;28;20042;-70
2023/07/22 07:20:31;;;;;;;72.45;68.72;;;;;;;21.33;42.32;101236.16;5029696;28;20116;-70
2023/07/22 07:22:56;;;;;;;70.93;66.95;;;;;;;21.35;42.06;101236.69;5022948;28;20052;-69
2023/07/22 07:25:22;;;;;;;76.72;72.05;;;;;;;21.35;42.21;101228.44;5015238;28;20037;-69
2023/07/22 07:27:48;;;;;;;72.10;67.95;;;;;;;21.37;42.66;101232.50;5021431;28;20037;-69
2023/07/22 07:30:13;;;;;;;74.78;69.80;;;;;;;21.38;42.59;101225.06;5023367;28;20033;-70
2023/07/22 07:32:38;;;;;;;73.07;68.85;;;;;;;21.40;42.61;101225.63;5019381;28;20154;-70
2023/07/22 07:35:04;;;;;;;74.15;69.43;;;;;;;21.41;42.29;101221.75;5013974;28;20038;-69
2023/07/22 07:37:31;;;;;;;72.78;68.72;;;;;;;21.44;42.46;101225.81;5020005;28;20057;-68
2023/07/22 07:39:59;;;;;;;72.15;68.10;;;;;;;21.45;42.39;101230.22;5020031;28;20497;-69
2023/07/22 07:42:26;;;;;;;70.78;66.60;;;;;;;21.47;42.52;101227.94;5013747;28;20032;-70
2023/07/22 07:44:52;;;;;;;73.50;69.13;;;;;;;21.49;42.43;101229.28;5012664;28;20040;-69
2023/07/22 07:47:17;;;;;;;76.30;71.88;;;;;;;21.50;42.84;101233.66;5014256;28;20112;-69
2023/07/22 07:49:43;;;;;;;74.55;70.50;;;;;;;21.52;42.62;101228.69;5043202;28;20029;-68
2023/07/22 07:52:08;;;;;;;75.28;71.38;;;;;;;21.54;42.58;101233.84;5031508;28;20041;-71
2023/07/22 07:54:33;;;;;;;72.30;68.30;;;;;;;21.56;42.88;101228.88;5032727;28;20052;-69
2023/07/22 07:56:59;;;;;;;71.72;67.70;;;;;;;21.58;42.62;101232.13;5044900;28;20033;-69
2023/07/22 07:59:24;;;;;;;75.30;70.82;;;;;;;21.59;42.54;101222.75;5031198;28;20037;-69
2023/07/22 08:01:50;;;;;;;73.40;69.30;;;;;;;21.61;42.79;101226.84;5031516;28;20140;-69
2023/07/22 08:04:17;;;;;;;71.35;67.40;;;;;;;21.64;42.48;101227.34;5032856;28;20378;-70
2023/07/22 08:06:42;;;;;;;79.03;74.65;;;;;;;21.65;42.91;101229.00;5042295;28;20041;-71
2023/07/22 08:09:10;;;;;;;74.47;70.18;;;;;;;21.66;42.84;101231.41;5013670;28;20363;-69
2023/07/22 08:11:36;;;;;;;73.93;69.68;;;;;;;21.68;43.02;101229.19;5012380;28;20382;-69
2023/07/22 08:14:01;;;;;;;73.35;69.45;;;;;;;21.68;42.59;101231.13;5023367;28;20037;-70
2023/07/22 08:16:27;;;;;;;76.55;72.38;;;;;;;21.70;42.97;101234.41;5014045;28;20045;-69
2023/07/22 08:18:53;;;;;;;77.10;73.05;;;;;;;21.72;42.77;101230.22;5024528;28;20033;-69
2023/07/22 08:21:19;;;;;;;72.80;68.90;;;;;;;21.75;42.95;101217.78;5035544;28;20390;-69
2023/07/22 08:23:45;;;;;;;74.68;70.43;;;;;;;21.76;42.99;101222.97;5031413;28;20182;-69
2023/07/22 08:26:11;;;;;;;71.97;68.13;;;;;;;21.77;42.98;101218.28;5031344;28;20129;-70
2023/07/22 08:28:36;;;;;;;75.85;71.80;;;;;;;21.80;43.29;101226.75;5012482;28;20357;-70
2023/07/22 08:31:02;;;;;;;73.85;69.53;;;;;;;21.82;43.23;101224.50;5024708;28;20168;-70
2023/07/22 08:33:28;;;;;;;75.90;71.90;;;;;;;21.86;43.49;101226.63;5021241;28;20116;-70
2023/07/22 08:35:53;;;;;;;77.00;73.00;;;;;;;21.88;43.44;101238.16;5025912;28;20397;-70
2023/07/22 08:38:19;;;;;;;74.32;70.18;;;;;;;21.91;43.30;101229.28;5018291;28;20045;-74
2023/07/22 08:40:44;;;;;;;73.70;69.55;;;;;;;21.93;43.41;101233.34;5012985;28;20382;-70
2023/07/22 08:43:11;;;;;;;77.07;73.18;;;;;;;21.96;43.06;101227.22;5015413;28;20382;-69
2023/07/22 08:45:38;;;;;;;73.60;69.85;;;;;;;22.01;42.91;101231.81;5024494;28;20462;-69
2023/07/22 08:48:09;;;;;;;77.65;73.80;;;;;;;22.07;42.88;101227.00;5014121;28;20073;-70
2023/07/22 08:50:46;;;;;;;76.30;72.38;;;;;;;22.10;43.11;101223.63;5026694;28;20044;-69
2023/07/22 08:53:14;;;;;;;76.97;72.88;;;;;;;22.14;43.26;101232.91;5018472;28;20044;-70
2023/07/22 08:55:40;;;;;;;;;;;;;;;22.18;43.03;101233.94;5012282;28;20058;-69
2023/07/22 08:58:09;;;;;;;76.22;72.13;;;;;;;22.22;42.70;101230.25;5030690;28;19923;-70
2023/07/22 09:00:36;;;;;;;75.85;71.82;;;;;;;22.25;42.84;101229.66;5018194;28;20389;-69
2023/07/22 09:03:02;;;;;;;75.32;71.55;;;;;;;22.30;42.91;101220.47;5012229;28;20169;-70
2023/07/22 09:05:28;;;;;;;73.15;69.35;;;;;;;22.34;43.07;101220.66;5015379;28;20053;-69
2023/07/22 09:07:56;;;;;;;74.15;70.25;;;;;;;22.38;42.81;101219.72;5029840;28;20060;-69
2023/07/22 09:10:24;;;;;;;75.83;72.23;;;;;;;22.43;42.95;101216.06;5012322;28;20149;-69
2023/07/22 09:12:50;;;;;;;75.87;72.07;;;;;;;22.49;42.62;101214.00;5021858;28;20118;-69
2023/07/22 09:15:16;;;;;;;80.60;76.63;;;;;;;22.53;42.80;101217.72;5030895;28;20033;-71
2023/07/22 09:17:42;;;;;;;77.10;73.20;;;;;;;22.58;42.65;101214.84;5030535;28;20070;-70
2023/07/22 09:20:08;;;;;;;80.20;76.13;;;;;;;22.62;43.04;101215.88;5030397;28;20041;-72
2023/07/22 09:22:34;;;;;;;79.68;75.60;;;;;;;22.68;42.75;101217.38;5024815;28;20034;-70
2023/07/22 09:25:14;;;;;;;81.05;76.55;;;;;;;22.72;42.82;101221.13;5013320;28;20374;-70
2023/07/22 09:27:40;;;;;;;79.82;75.85;;;;;;;22.77;43.00;101211.91;5041227;28;20289;-70
2023/07/22 09:30:20;;;;;;;79.85;75.88;;;;;;;22.82;42.38;101218.09;5031420;28;20471;-70
2023/07/22 09:32:45;;;;;;;80.80;76.70;;;;;;;22.86;42.72;101216.38;5036301;28;20048;-69
2023/07/22 09:35:10;;;;;;;82.28;78.47;;;;;;;22.91;42.90;101220.94;5037467;28;20343;-68
2023/07/22 09:37:37;;;;;;;83.07;78.90;;;;;;;22.96;42.64;101211.72;5030654;28;20057;-68
2023/07/22 09:40:15;;;;;;;80.18;76.43;;;;;;;23.00;42.54;101218.25;5022297;28;20465;-69
2023/07/22 09:42:43;;;;;;;80.35;76.38;;;;;;;23.05;42.35;101218.13;5016167;28;20028;-70
2023/07/22 09:45:09;;;;;;;;;;;;;;;23.08;42.40;101220.22;5029954;28;20076;-69
2023/07/22 09:47:45;;;;;;;83.95;79.85;;;;;;;23.11;42.88;101220.44;5030039;28;19956;-69
2023/07/22 09:50:16;;;;;;;81.68;77.57;;;;;;;23.17;42.57;101214.78;5029687;28;20041;-70
2023/07/22 09:52:46;;;;;;;82.05;77.53;;;;;;;23.22;42.64;101212.69;5011079;28;20033;-68
2023/07/22 09:55:16;;;;;;;82.75;78.78;;;;;;;23.26;42.18;101204.63;5039043;28;20117;-69
2023/07/22 09:57:49;;;;;;;83.63;79.43;;;;;;;23.32;42.33;101212.41;5022189;28;20037;-69
2023/07/22 10:00:19;;;;;;;81.53;76.97;;;;;;;23.37;42.42;101202.41;5019593;28;20033;-69
2023/07/22 10:02:45;;;;;;;84.25;80.45;;;;;;;23.40;42.34;101202.56;5024544;28;20061;-70
2023/07/22 10:05:16;;;;;;;82.15;78.25;;;;;;;23.44;42.54;101208.28;5031957;28;20056;-69
2023/07/22 10:07:50;;;;;;;85.28;81.13;;;;;;;23.49;42.33;101211.69;5029866;28;20164;-69
2023/07/22 10:10:19;;;;;;;82.18;78.22;;;;;;;23.54;42.47;101221.78;5029506;28;20041;-69
2023/07/22 10:12:44;;;;;;;;;;;;;;;23.57;42.52;101217.56;5020518;28;20112;-69
2023/07/22 10:15:12;;;;;;;88.38;84.30;;;;;;;23.61;42.53;101219.38;5024038;28;20444;-70
2023/07/22 10:17:39;;;;;;;86.97;82.85;;;;;;;23.64;42.30;101217.91;5023192;28;20033;-69
2023/07/22 10:20:08;;;;;;;83.30;79.53;;;;;;;23.67;42.20;101220.84;5025056;28;20040;-69
2023/07/22 10:22:36;;;;;;;85.32;81.22;;;;;;;23.72;42.04;101223.47;5018508;28;20491;-69
2023/07/22 10:25:04;;;;;;;81.13;77.47;;;;;;;23.77;42.49;101218.94;5019895;28;20485;-69
2023/07/22 10:27:31;;;;;;;82.30;78.50;;;;;;;23.82;42.08;101216.03;5011427;28;20022;-69
2023/07/22 10:29:56;;;;;;;84.20;80.30;;;;;;;23.85;41.99;101218.16;5023515;28;20044;-69
2023/07/22 10:32:22;;;;;;;84.13;80.35;;;;;;;23.88;41.75;101212.78;5020414;28;20045;-69
2023/07/22 10:34:47;;;;;;;88.35;84.40;;;;;;;23.92;42.04;101208.28;5015055;28;20042;-71
2023/07/22 10:37:13;;;;;;;86.28;82.35;;;;;;;23.96;42.02;101205.66;5025843;28;20042;-70
2023/07/22 10:39:38;;;;;;;86.97;82.88;;;;;;;24.00;41.75;101203.09;5019970;28;20033;-69
2023/07/22 10:42:05;;;;;;;81.13;76.57;;;;;;;24.04;41.73;101204.06;5012686;28;20120;-69
2023/07/22 10:44:38;;;;;;;81.97;77.88;;;;;;;24.07;41.46;101206.19;5016749;28;20125;-70
2023/07/22 10:47:04;;;;;;;80.68;76.93;;;;;;;24.12;41.61;101203.28;5030681;28;20076;-69
2023/07/22 10:49:49;;;;;;;83.88;79.97;;;;;;;24.16;41.69;101205.03;5033917;28;20033;-69
2023/07/22 10:52:40;;;;;;;83.18;79.38;;;;;;;24.21;41.33;101190.28;5030511;28;20042;-69
2023/07/22 10:55:14;;;;;;;85.05;81.15;;;;;;;24.25;41.15;101194.03;5022896;28;20060;-69
2023/07/22 10:57:51;;;;;;;85.20;81.40;;;;;;;24.28;41.55;101204.41;5030514;28;20036;-69
2023/07/22 11:00:20;;;;;;;84.97;81.07;;;;;;;24.33;40.78;101200.69;5032951;28;20057;-70
2023/07/22 11:02:48;;;;;;;91.85;87.20;;;;;;;24.36;41.14;101188.97;5018950;28;20498;-68
2023/07/22 11:05:16;;;;;;;86.03;82.10;;;;;;;24.40;40.66;101195.47;5019221;28;20816;-67
2023/07/22 11:07:44;;;;;;;86.32;82.03;;;;;;;24.44;41.08;101190.09;5014116;28;20025;-69
2023/07/22 11:10:17;;;;;;;;;;;;;;;24.47;40.90;101190.31;5018796;28;20045;-69